Latest Coastal Weather Observations for Cape Otway

IDV60701

Issued at 3:32 am EST Wednesday 28 June 2017 (issued every 10 minutes, with the page automatically refreshed every 10 minutes)

About coastal observations | Map of coastal stations | Coastal observations for VIC | Marine services | Other Formats
Station Details ID: 090015 Name: CAPE OTWAY LIGHTHOUSE Lat: -38.86 Lon: 143.51 Height: 82.0 m
Data from the previous 72 hours. | See also: Recent months at Cape Otway
Date/Time
EST
Temp
°C
Wind Pressure Rain since
9am
mm
Weather Cloud Vis
km
Sea
Height
m
Swell
Dir  Spd
kts
Gust
kts
hPa Trend Height
m
Period
s
Dir
28/03:30am 10.0 N 14 21 1021.1 - 0.0 - - - - - - -
28/03:00am 10.1 N 14 22 1021.2 - 0.0 - - - - - - -
28/02:30am 10.1 N 14 20 1021.2 - 0.0 - - - - - - -
28/02:00am 9.8 N 14 23 1021.1 - 0.0 - - - - - - -
28/01:30am 10.0 N 14 21 1021.2 - 0.0 - - - - - - -
28/01:00am 9.7 N 13 19 1021.3 - 0.0 - - - - - - -
28/12:30am 10.0 N 16 21 1021.4 - 0.0 - - - - - - -
28/12:00am 9.9 N 12 18 1021.6 - 0.0 - - - - - - -
 
Date/Time
EST
Temp
°C
Wind Pressure Rain since
9am
mm
Weather Cloud Vis
km
Sea
Height
m
Swell
Dir  Spd
kts
Gust
kts
hPa Trend Height
m
Period
s
Dir
27/11:30pm 10.4 N 15 20 1021.5 - 0.0 - - - - - - -
27/11:00pm 10.6 N 15 19 1021.6 - 0.0 - - - - - - -
27/10:30pm 10.5 N 13 18 1021.6 - 0.0 - - - - - - -
27/10:00pm 10.4 N 12 16 1021.5 - 0.0 - - - - - - -
27/09:30pm 10.2 N 11 15 1021.6 - 0.0 - - - - - - -
27/09:00pm 10.6 N 11 15 1021.8 - 0.0 - - - - - - -
27/08:30pm 10.3 N 10 14 1022.1 - 0.0 - - - - - - -
27/08:00pm 10.0 N 11 15 1022.1 - 0.0 - - - - - - -
27/07:30pm 10.3 N 10 13 1022.0 - 0.0 - - - - - - -
27/07:00pm 10.0 N 9 12 1021.9 - 0.0 - - - - - - -
27/06:30pm 10.0 N 9 11 1022.0 - 0.0 - - - - - - -
27/06:00pm 9.9 N 9 11 1022.2 - 0.0 - - - - - - -
27/05:30pm 9.9 N 9 12 1022.2 - 0.0 - - - - - - -
27/05:00pm 10.1 N 9 12 1022.2 - 0.0 - - - - - - -
27/04:30pm 10.4 N 8 11 1022.3 - 0.0 - - - - - - -
27/04:00pm 10.8 NNW 8 12 1022.4 - 0.0 - - - - - - -
27/03:30pm 11.1 N 8 12 1022.4 - 0.0 - - - - - - -
27/03:00pm 10.7 N 7 10 1022.3 - 0.0 - - - - - - -
27/02:30pm 10.5 N 8 11 1022.4 - 0.0 - - - - - - -
27/02:00pm 10.3 N 8 11 1022.6 - 0.0 - - - - - - -
27/01:30pm 10.3 N 7 10 1023.0 - 0.0 - - - - - - -
27/01:00pm 10.4 N 7 10 1023.3 - 0.0 - - - - - - -
27/12:30pm 10.2 N 9 12 1023.8 - 0.0 - - - - - - -
27/12:00pm 10.5 N 8 11 1024.2 - 0.0 - - - - - - -
27/11:30am 10.8 N 7 10 1024.6 - 0.0 - - - - - - -
27/11:00am 11.3 N 6 10 1024.8 - 0.0 - - - - - - -
27/10:30am 11.0 N 7 12 1024.9 - 0.0 - - - - - - -
27/10:00am 10.0 N 8 11 1024.8 - 0.0 - - - - - - -
27/09:30am 9.6 N 9 12 1024.8 - 0.0 - - - - - - -
27/09:00am 8.8 N 9 12 1024.8 - 0.0 - - - - - - -
27/08:30am 8.2 N 10 13 1024.8 - 0.0 - - - - - - -
27/08:00am 7.4 N 10 13 1024.7 - 0.0 - - - - - - -
27/07:30am 7.0 N 10 12 1024.6 - 0.0 - - - - - - -
27/07:00am 6.7 N 9 11 1024.5 - 0.0 - - - - - - -
27/06:30am 6.6 N 9 11 1024.4 - 0.0 - - - - - - -
27/06:00am 6.5 N 8 10 1024.3 - 0.0 - - - - - - -
27/05:30am 6.8 N 9 11 1024.4 - 0.0 - - - - - - -
27/05:00am 6.7 N 9 12 1024.5 - 0.0 - - - - - - -
27/04:30am 6.7 N 9 11 1024.8 - 0.0 - - - - - - -
27/04:00am 6.6 N 9 11 1025.0 - 0.0 - - - - - - -
27/03:30am 6.7 N 9 11 1025.2 - 0.0 - - - - - - -
27/03:00am 6.9 N 9 11 1025.2 - 0.0 - - - - - - -
27/02:30am 6.8 NNW 9 12 1025.2 - 0.0 - - - - - - -
27/02:00am 6.9 NNW 9 11 1025.2 - 0.0 - - - - - - -
27/01:30am 6.9 NNW 8 10 1025.2 - 0.0 - - - - - - -
27/01:00am 6.9 NNW 9 10 1025.1 - 0.0 - - - - - - -
27/12:30am 6.7 NNW 9 11 1025.3 - 0.0 - - - - - - -
27/12:00am 6.7 NNW 8 9 1025.3 - 0.0 - - - - - - -
 
Date/Time
EST
Temp
°C
Wind Pressure Rain since
9am
mm
Weather Cloud Vis
km
Sea
Height
m
Swell
Dir  Spd
kts
Gust
kts
hPa Trend Height
m
Period
s
Dir
26/11:30pm 7.1 NNW 9 10 1025.5 - 0.0 - - - - - - -
26/11:00pm 7.3 NNW 9 10 1025.8 - 0.0 - - - - - - -
26/10:30pm 7.4 NNW 8 10 1025.8 - 0.0 - - - - - - -
26/10:00pm 7.5 NNW 8 9 1025.8 - 0.0 - - - - - - -
26/09:30pm 7.8 NNW 8 9 1025.8 - 0.0 - - - - - - -
26/09:00pm 7.9 NNW 7 9 1025.9 - 0.0 - - - - - - -
26/08:30pm 8.4 N 7 9 1025.9 - 0.0 - - - - - - -
26/08:00pm 9.0 NNW 7 8 1025.8 - 0.0 - - - - - - -
26/07:30pm 8.8 NNW 6 8 1025.6 - 0.0 - - - - - - -
26/07:00pm 10.3 W 5 7 1025.5 - 0.0 - - - - - - -
26/06:30pm 10.2 WSW 9 11 1025.2 - 0.0 - - - - - - -
26/06:00pm 10.4 WSW 7 11 1025.1 - 0.0 - - - - - - -
26/05:30pm 10.6 SW 6 10 1024.9 - 0.0 - - - - - - -
26/05:00pm 10.5 SSW 8 11 1024.5 - 0.0 - - - - - - -
26/04:30pm 10.6 SW 5 7 1024.4 - 0.0 - - - - - - -
26/04:00pm 11.3 SW 8 13 1024.3 - 0.0 - - - - - - -
26/03:30pm 11.4 WSW 5 8 1024.1 - 0.0 - - - - - - -
26/03:00pm 11.3 SW 9 12 1024.0 - 0.0 - - - - - - -
26/02:30pm 11.4 SW 10 12 1023.9 - 0.0 - - - - - - -
26/02:00pm 11.9 SW 11 15 1023.9 - 0.0 - - - - - - -
26/01:30pm 12.3 WSW 9 12 1023.8 - 0.0 - - - - - - -
26/01:00pm 12.5 WSW 7 11 1023.8 - 0.0 - - - - - - -
26/12:30pm 11.9 WSW 9 14 1023.9 - 0.0 - - - - - - -
26/12:00pm 11.9 WSW 10 13 1024.2 - 0.0 - - - - - - -
26/11:30am 11.6 SW 10 14 1024.2 - 0.0 - - - - - - -
26/11:00am 11.7 SW 13 18 1024.2 - 0.0 - - - - - - -
26/10:30am 11.1 SW 12 18 1023.9 - 0.0 - - - - - - -
26/10:00am 11.4 SW 13 19 1023.5 - 0.0 - - - - - - -
26/09:30am 11.3 SW 14 19 1023.1 - 0.0 - - - - - - -
26/09:00am 11.3 SSW 14 19 1022.7 - 6.2 - - - - - - -
26/08:30am 10.5 SW 9 15 1022.2 - 6.2 - - - - - - -
26/08:00am 11.1 SSW 14 20 1021.7 - 6.2 - - - - - - -
26/07:30am 10.6 SW 10 17 1021.6 - 6.2 - - - - - - -
26/07:00am 10.7 SSW 15 21 1021.3 - 6.2 - - - - - - -
26/06:30am 10.4 SW 12 19 1020.9 - 6.2 - - - - - - -
26/06:00am 10.3 WSW 13 20 1020.5 - 6.2 Recent precip. - - - - - -
26/05:30am 9.9 SW 12 17 1020.2 - 6.2 - - - - - - -
26/05:14am 10.2 WSW 11 24 1020.1 - 5.8 - - - - - - -
26/05:00am 9.9 WSW 8 11 1019.9 - 5.6 - - - - - - -
26/04:30am 10.0 SSW 12 19 1019.8 - 5.6 - - - - - - -
26/04:00am 10.4 WSW 11 16 1019.6 - 5.6 - - - - - - -
26/03:30am 10.9 WSW 12 17 1019.5 - 5.6 - - - - - - -
26/03:00am 10.3 SW 15 20 1019.4 - 5.6 - - - - - - -
26/02:30am 10.2 W 13 19 1019.4 - 5.6 - - - - - - -
26/02:03am 10.9 WSW 15 26 1018.8 - 5.6 - - - - - - -
26/02:00am 11.5 WSW 14 24 1018.7 - 5.6 - - - - - - -
26/01:30am 10.9 WSW 11 17 1018.5 - 5.6 - - - - - - -
26/01:00am 10.1 SW 18 25 1018.3 - 5.6 - - - - - - -
26/12:39am 11.1 WSW 15 25 1018.3 - 5.6 - - - - - - -
26/12:30am 11.0 WSW 12 16 1018.3 - 5.6 - - - - - - -
26/12:00am 10.6 SW 21 28 1018.1 - 5.6 - - - - - - -
 
Date/Time
EST
Temp
°C
Wind Pressure Rain since
9am
mm
Weather Cloud Vis
km
Sea
Height
m
Swell
Dir  Spd
kts
Gust
kts
hPa Trend Height
m
Period
s
Dir
25/11:50pm 11.5 WSW 16 29 1018.1 - 5.6 - - - - - - -
25/11:30pm 11.5 W 14 20 1017.9 - 5.6 - - - - - - -
25/11:00pm 11.4 WSW 13 19 1017.7 - 5.6 - - - - - - -
25/10:30pm 11.4 WSW 15 20 1017.5 - 5.6 - - - - - - -
25/10:00pm 11.3 WSW 16 23 1017.3 - 5.6 - - - - - - -
25/09:30pm 11.5 W 13 19 1017.1 - 5.6 - - - - - - -
25/09:00pm 11.6 WSW 14 22 1016.9 - 5.6 - - - - - - -
25/08:30pm 11.7 WSW 17 26 1016.6 - 5.6 - - - - - - -
25/08:26pm 12.1 WSW 15 26 1016.5 - 5.6 - - - - - - -
25/08:00pm 11.6 WSW 14 22 1016.2 - 5.6 - - - - - - -
25/07:30pm 11.7 WSW 16 23 1015.8 - 5.6 - - - - - - -
25/07:00pm 11.5 WSW 17 23 1015.5 - 5.6 - - - - - - -
25/06:30pm 11.5 WSW 19 26 1015.0 - 5.6 - - - - - - -
25/06:00pm 11.9 WSW 17 27 1014.6 - 5.6 - - - - - - -
25/05:57pm 11.8 WSW 17 27 1014.6 - 5.6 - - - - - - -
25/05:30pm 11.7 WSW 17 25 1014.2 - 5.6 - - - - - - -
25/05:00pm 11.6 WSW 18 24 1013.8 - 5.6 - - - - - - -
25/04:39pm 11.3 WSW 18 30 1013.5 - 5.6 - - - - - - -
25/04:30pm 11.3 WSW 18 26 1013.5 - 5.6 - - - - - - -
25/04:25pm 11.2 WSW 18 28 1013.4 - 5.6 - - - - - - -
25/04:00pm 11.4 W 19 27 1013.1 - 4.8 - - - - - - -
25/03:30pm 10.8 W 16 29 1013.1 - 4.8 - - - - - - -
25/03:00pm 10.5 WNW 18 28 1012.9 - 4.6 Rain - - - - - -
25/02:30pm 10.9 WNW 19 29 1012.4 - 2.4 - - - - - - -
25/02:13pm 10.7 WNW 20 32 1012.4 - 2.0 - - - - - - -
25/02:00pm 10.8 WNW 20 29 1012.2 - 1.0 - - - - - - -
25/01:30pm 10.9 WNW 18 29 1012.3 - 0.4 - - - - - - -
25/01:00pm 11.4 NW 18 31 1012.5 - 0.0 - - - - - - -
25/12:30pm 11.2 WNW 18 28 1012.8 - 0.0 - - - - - - -
25/12:16pm 11.2 NW 17 27 1013.0 - 0.0 - - - - - - -
25/12:00pm 11.2 NW 18 27 1013.1 - 0.0 - - - - - - -
25/11:37am 10.7 NW 18 28 1013.3 - 0.0 - - - - - - -
25/11:30am 10.7 NW 19 28 1013.3 - 0.0 - - - - - - -
25/11:02am 10.6 NW 16 26 1013.8 - 0.0 - - - - - - -
25/11:00am 10.5 NW 16 25 1013.8 - 0.0 - - - - - - -
25/10:30am 10.3 NW 16 26 1013.9 - 0.0 - - - - - - -
25/10:00am 10.2 NW 15 25 1013.9 - 0.0 - - - - - - -
25/09:30am 9.6 NW 18 29 1013.8 - 0.0 - - - - - - -
25/09:03am 9.6 NW 15 28 1013.6 - 0.0 - - - - - - -
25/09:00am 9.6 NW 14 21 1013.6 - 1.0 - - - - - - -
25/08:35am 9.5 NW 15 25 1013.6 - 1.0 - - - - - - -
25/08:30am 9.4 NW 14 24 1013.6 - 1.0 - - - - - - -
25/08:00am 8.9 NW 15 22 1013.6 - 1.0 - - - - - - -
25/07:30am 8.9 NW 15 24 1013.6 - 1.0 - - - - - - -
25/07:01am 8.8 NW 15 25 1013.4 - 1.0 - - - - - - -
25/07:00am 8.8 NW 16 25 1013.3 - 1.0 - - - - - - -
25/06:33am 8.9 NW 15 26 1013.2 - 1.0 - - - - - - -
25/06:30am 8.9 NW 14 25 1013.2 - 1.0 - - - - - - -
25/06:17am 9.1 NW 15 25 1013.1 - 1.0 - - - - - - -
25/06:00am 8.9 NW 15 24 1013.2 - 1.0 - - - - - - -
25/05:30am 8.7 NW 12 20 1013.3 - 1.0 - - - - - - -
25/05:00am 8.8 NW 14 23 1013.4 - 1.0 - - - - - - -
25/04:30am 8.3 NW 14 20 1013.6 - 1.0 - - - - - - -
25/04:00am 8.6 NW 15 23 1013.8 - 1.0 - - - - - - -

Other Formats:

Comma delimited format used in spreadsheet applications
http://www.bom.gov.au/fwo/IDV60701/IDV60701.94842.axf

JavaScript Object Notation format (JSON) in row-major order
http://www.bom.gov.au/fwo/IDV60701/IDV60701.94842.json